createdAt,value
2019-05-07T00:01:52.614Z,16.61
2019-05-07T00:04:22.480Z,16.63
2019-05-07T00:06:52.886Z,16.61
2019-05-07T00:09:23.283Z,16.63
2019-05-07T00:11:53.446Z,16.62
2019-05-07T00:14:24.212Z,16.63
2019-05-07T00:16:53.870Z,16.62
2019-05-07T00:19:23.920Z,16.60
2019-05-07T00:21:53.859Z,16.61
2019-05-07T00:24:23.401Z,16.62
2019-05-07T00:26:53.344Z,16.61
2019-05-07T00:29:23.224Z,16.61
2019-05-07T00:31:52.788Z,16.60
2019-05-07T00:34:24.299Z,16.60
2019-05-07T00:36:58.246Z,16.60
2019-05-07T00:39:32.651Z,16.60
2019-05-07T00:42:06.453Z,16.59
2019-05-07T00:44:37.618Z,16.59
2019-05-07T00:47:07.629Z,16.59
2019-05-07T00:49:37.059Z,16.58
2019-05-07T00:52:06.481Z,16.59
2019-05-07T00:54:36.451Z,16.59
2019-05-07T00:57:05.925Z,16.60
2019-05-07T00:59:35.479Z,16.61
2019-05-07T01:02:05.300Z,16.60
2019-05-07T01:04:34.832Z,16.58
2019-05-07T01:07:05.669Z,16.59
2019-05-07T01:09:35.423Z,16.59
2019-05-07T01:12:05.844Z,16.57
2019-05-07T01:14:35.257Z,16.57
2019-05-07T01:17:04.840Z,16.56
2019-05-07T01:19:34.508Z,16.56
2019-05-07T01:22:03.918Z,16.56
2019-05-07T01:24:33.394Z,16.57
2019-05-07T01:27:02.889Z,16.56
2019-05-07T01:29:34.301Z,16.57
2019-05-07T01:32:05.314Z,16.56
2019-05-07T01:34:54.456Z,16.55
2019-05-07T01:37:24.116Z,16.56
2019-05-07T01:39:53.853Z,16.55
2019-05-07T01:42:23.368Z,16.55
2019-05-07T01:46:04.823Z,16.56
2019-05-07T01:48:34.711Z,16.54
2019-05-07T01:51:04.812Z,16.54
2019-05-07T01:53:34.383Z,16.54
2019-05-07T01:56:05.765Z,16.54
2019-05-07T01:58:35.190Z,16.52
2019-05-07T02:01:05.012Z,16.51
2019-05-07T02:03:49.170Z,16.52
2019-05-07T02:06:29.114Z,16.50
2019-05-07T02:09:16.703Z,16.50
2019-05-07T02:11:47.922Z,16.50
2019-05-07T02:14:17.376Z,16.48
2019-05-07T02:16:46.765Z,16.49
2019-05-07T02:19:16.135Z,16.50
2019-05-07T02:21:45.640Z,16.48
2019-05-07T02:24:16.975Z,16.47
2019-05-07T02:26:49.073Z,16.46
2019-05-07T02:29:19.591Z,16.47
2019-05-07T02:31:49.102Z,16.46
2019-05-07T02:34:18.491Z,16.46
2019-05-07T02:36:48.104Z,16.47
2019-05-07T02:39:24.109Z,16.47
2019-05-07T02:41:56.101Z,16.46
2019-05-07T02:44:25.550Z,16.46
2019-05-07T02:46:59.741Z,16.45
2019-05-07T02:49:43.873Z,16.45
2019-05-07T02:52:13.699Z,16.45
2019-05-07T02:54:53.913Z,16.45
2019-05-07T02:57:24.001Z,16.44
2019-05-07T02:59:54.761Z,16.44
2019-05-07T03:02:24.396Z,16.43
2019-05-07T03:04:54.464Z,16.43
2019-05-07T03:07:24.380Z,16.44
2019-05-07T03:09:54.196Z,16.42
2019-05-07T03:12:24.012Z,16.41
2019-05-07T03:14:54.087Z,16.42
2019-05-07T03:17:24.602Z,16.40
2019-05-07T03:19:56.156Z,16.40
2019-05-07T03:22:25.700Z,16.39
2019-05-07T03:24:57.432Z,16.39
2019-05-07T03:27:29.159Z,16.39
2019-05-07T03:30:17.585Z,16.38
2019-05-07T03:32:57.936Z,16.39
2019-05-07T03:35:38.395Z,16.38
2019-05-07T03:38:08.072Z,16.37
2019-05-07T03:40:38.004Z,16.37
2019-05-07T03:43:09.801Z,16.36
2019-05-07T03:45:43.210Z,16.35
2019-05-07T03:48:14.947Z,16.35
2019-05-07T03:50:45.375Z,16.34
2019-05-07T03:53:15.621Z,16.33
2019-05-07T03:55:45.937Z,16.35
2019-05-07T03:58:16.131Z,16.34
2019-05-07T04:00:46.733Z,16.34
2019-05-07T04:03:19.676Z,16.31
2019-05-07T04:05:53.109Z,16.33
2019-05-07T04:08:24.112Z,16.34
2019-05-07T04:10:55.999Z,16.30
2019-05-07T04:13:27.650Z,16.31
2019-05-07T04:15:57.832Z,16.32
2019-05-07T04:18:28.187Z,16.32
2019-05-07T04:20:58.269Z,16.31
2019-05-07T04:23:28.348Z,16.31
2019-05-07T04:26:04.535Z,16.31
2019-05-07T04:28:36.630Z,16.31
2019-05-07T04:31:07.167Z,16.31
2019-05-07T04:33:39.247Z,16.29
2019-05-07T04:36:14.102Z,16.29
2019-05-07T04:38:44.303Z,16.28
2019-05-07T04:41:15.051Z,16.28
2019-05-07T04:43:46.426Z,16.31
2019-05-07T04:46:16.585Z,16.31
2019-05-07T04:48:46.693Z,16.31
2019-05-07T04:51:18.342Z,16.28
2019-05-07T04:53:48.725Z,16.27
2019-05-07T04:56:18.680Z,16.27
2019-05-07T04:58:49.234Z,16.27
2019-05-07T05:01:23.428Z,16.26
2019-05-07T05:03:53.997Z,16.25
2019-05-07T05:06:24.916Z,16.26
2019-05-07T05:08:56.301Z,16.26
2019-05-07T05:11:26.915Z,16.23
2019-05-07T05:13:56.925Z,16.26
2019-05-07T05:16:27.936Z,16.30
2019-05-07T05:18:59.563Z,16.29
2019-05-07T05:21:46.057Z,16.24
2019-05-07T05:24:29.847Z,16.21
2019-05-07T05:27:02.574Z,16.19
2019-05-07T05:29:34.796Z,16.18
2019-05-07T05:32:05.765Z,16.16
2019-05-07T05:34:36.115Z,16.14
2019-05-07T05:37:06.383Z,16.14
2019-05-07T05:39:36.410Z,16.13
2019-05-07T05:42:11.838Z,16.11
2019-05-07T05:44:42.090Z,16.12
2019-05-07T05:47:12.232Z,16.11
2019-05-07T05:49:42.955Z,16.10
2019-05-07T05:52:15.435Z,16.09
2019-05-07T05:54:47.330Z,16.10
2019-05-07T05:57:17.295Z,16.09
2019-05-07T05:59:57.684Z,16.09
2019-05-07T06:02:29.313Z,16.09
2019-05-07T06:05:02.191Z,16.07
2019-05-07T06:07:45.935Z,16.05
2019-05-07T06:10:17.590Z,16.03
2019-05-07T06:12:56.938Z,16.00
2019-05-07T06:15:33.811Z,16.02
2019-05-07T06:18:17.950Z,16.01
2019-05-07T06:20:44.098Z,16.02
2019-05-07T06:23:23.528Z,16.03
2019-05-07T06:25:54.122Z,16.05
2019-05-07T06:28:24.825Z,16.05
2019-05-07T06:30:55.108Z,16.06
2019-05-07T06:33:26.168Z,16.07
2019-05-07T06:35:58.007Z,16.08
2019-05-07T06:38:32.049Z,16.10
2019-05-07T06:41:14.097Z,16.10
2019-05-07T06:43:49.122Z,16.09
2019-05-07T06:46:23.186Z,16.11
2019-05-07T06:48:53.619Z,16.10
2019-05-07T06:51:25.935Z,16.12
2019-05-07T06:53:56.811Z,16.10
2019-05-07T06:56:26.981Z,16.12
2019-05-07T06:59:04.807Z,16.12
2019-05-07T07:01:42.295Z,16.13
2019-05-07T07:04:27.496Z,16.11
2019-05-07T07:07:23.996Z,16.12
2019-05-07T07:09:56.034Z,16.12
2019-05-07T07:12:33.136Z,16.13
2019-05-07T07:15:03.533Z,16.14
2019-05-07T07:17:33.871Z,16.14
2019-05-07T07:20:04.985Z,16.14
2019-05-07T07:22:35.523Z,16.12
2019-05-07T07:25:07.647Z,16.14
2019-05-07T07:27:38.055Z,16.16
2019-05-07T07:30:28.116Z,16.17
2019-05-07T07:32:59.736Z,16.18
2019-05-07T07:35:32.207Z,16.16
2019-05-07T07:38:03.932Z,16.17
2019-05-07T07:40:38.804Z,16.18
2019-05-07T07:43:09.723Z,16.19
2019-05-07T07:45:42.071Z,16.20
2019-05-07T07:48:13.272Z,16.23
2019-05-07T07:50:43.993Z,16.25
2019-05-07T07:53:14.370Z,16.25
2019-05-07T07:55:46.036Z,16.24
2019-05-07T07:58:17.879Z,16.25
2019-05-07T08:00:48.199Z,16.23
2019-05-07T08:03:18.260Z,16.26
2019-05-07T08:05:48.581Z,16.28
2019-05-07T08:08:18.896Z,16.27
2019-05-07T08:10:52.016Z,16.29
2019-05-07T08:13:24.425Z,16.28
2019-05-07T08:15:54.627Z,16.28
2019-05-07T08:18:26.974Z,16.29
2019-05-07T08:20:57.167Z,16.30
2019-05-07T08:23:27.686Z,16.30
2019-05-07T08:25:58.521Z,16.30
2019-05-07T08:28:28.759Z,16.31
2019-05-07T08:31:02.969Z,16.32
2019-05-07T08:33:34.920Z,16.32
2019-05-07T08:36:14.829Z,16.34
2019-05-07T08:38:52.994Z,16.35
2019-05-07T08:41:25.731Z,16.34
2019-05-07T08:44:09.129Z,16.36
2019-05-07T08:46:32.847Z,16.36
2019-05-07T08:49:03.168Z,16.38
2019-05-07T08:51:33.595Z,16.37
2019-05-07T08:54:06.930Z,16.37
2019-05-07T08:56:37.707Z,16.39
2019-05-07T08:59:08.580Z,16.40
2019-05-07T09:01:43.068Z,16.40
2019-05-07T09:04:13.436Z,16.42
2019-05-07T09:06:44.362Z,16.43
2019-05-07T09:09:14.714Z,16.43
2019-05-07T09:11:45.706Z,16.43
2019-05-07T09:14:16.043Z,16.43
2019-05-07T09:16:46.633Z,16.44
2019-05-07T09:19:16.851Z,16.45
2019-05-07T09:21:47.036Z,16.48
2019-05-07T09:24:17.655Z,16.48
2019-05-07T09:26:49.677Z,16.49
2019-05-07T09:29:36.767Z,16.50
2019-05-07T09:32:18.016Z,16.51
2019-05-07T09:34:51.918Z,16.50
2019-05-07T09:37:23.519Z,16.50
2019-05-07T09:39:54.013Z,16.48
2019-05-07T09:42:24.285Z,16.47
2019-05-07T09:44:54.512Z,16.49
2019-05-07T09:47:24.841Z,16.50
2019-05-07T09:50:04.609Z,16.51
2019-05-07T09:52:27.818Z,16.51
2019-05-07T09:54:58.215Z,16.53
2019-05-07T09:57:31.498Z,16.54
2019-05-07T10:00:02.208Z,16.54
2019-05-07T10:02:32.167Z,16.56
2019-05-07T10:05:02.712Z,16.58
2019-05-07T10:07:32.742Z,16.60
2019-05-07T10:10:03.125Z,16.61
2019-05-07T10:12:35.070Z,16.63
2019-05-07T10:15:06.736Z,16.62
2019-05-07T10:17:40.892Z,16.58
2019-05-07T10:20:21.108Z,16.60
2019-05-07T10:22:43.244Z,16.61
2019-05-07T10:25:13.983Z,16.62
2019-05-07T10:27:44.500Z,16.63
2019-05-07T10:30:15.182Z,16.61
2019-05-07T10:32:45.697Z,16.62
2019-05-07T10:35:16.317Z,16.64
2019-05-07T10:37:47.016Z,16.67
2019-05-07T10:40:17.157Z,16.71
2019-05-07T10:42:47.537Z,16.70
2019-05-07T10:45:35.603Z,16.72
2019-05-07T10:48:07.283Z,16.71
2019-05-07T10:50:39.400Z,16.74
2019-05-07T10:53:12.418Z,16.75
2019-05-07T10:55:45.436Z,16.75
2019-05-07T10:58:15.610Z,16.75
2019-05-07T11:00:45.690Z,16.75
2019-05-07T11:03:15.911Z,16.77
2019-05-07T11:05:46.216Z,16.75
2019-05-07T11:08:16.629Z,16.75
2019-05-07T11:10:46.622Z,16.74
2019-05-07T11:13:16.645Z,16.72
2019-05-07T11:15:48.390Z,16.73
2019-05-07T11:18:23.426Z,16.77
2019-05-07T11:20:53.651Z,16.75
2019-05-07T11:23:24.297Z,16.77
2019-05-07T11:25:54.740Z,16.81
2019-05-07T11:28:25.060Z,16.83
2019-05-07T11:30:55.194Z,16.80
2019-05-07T11:33:25.356Z,16.79
2019-05-07T11:35:55.358Z,16.83
2019-05-07T11:38:25.603Z,16.88
2019-05-07T11:40:55.687Z,16.88
2019-05-07T11:43:33.264Z,16.87
2019-05-07T11:46:04.881Z,16.86
2019-05-07T11:48:37.036Z,16.89
2019-05-07T11:51:08.862Z,16.83
2019-05-07T11:53:41.956Z,16.84
2019-05-07T11:56:12.305Z,16.83
2019-05-07T11:58:42.592Z,16.81
2019-05-07T12:01:14.267Z,16.82
2019-05-07T12:03:46.100Z,16.83
2019-05-07T12:06:16.295Z,16.86
2019-05-07T12:08:51.828Z,16.88
2019-05-07T12:11:18.982Z,16.85
2019-05-07T12:13:49.593Z,16.84
2019-05-07T12:16:22.226Z,16.83
2019-05-07T12:18:52.414Z,16.83
2019-05-07T12:21:24.262Z,16.83
2019-05-07T12:23:55.152Z,16.82
2019-05-07T12:26:25.390Z,16.83
2019-05-07T12:28:55.762Z,16.83
2019-05-07T12:31:30.568Z,16.81
2019-05-07T12:34:02.651Z,16.81
2019-05-07T12:36:32.219Z,16.85
2019-05-07T12:39:02.705Z,16.85
2019-05-07T12:41:35.857Z,16.86
2019-05-07T12:44:07.761Z,16.87
2019-05-07T12:46:38.027Z,16.89
2019-05-07T12:49:08.512Z,16.89
2019-05-07T12:51:53.331Z,16.90
2019-05-07T12:54:23.502Z,16.90
2019-05-07T12:56:53.890Z,16.90
2019-05-07T12:59:24.155Z,16.90
2019-05-07T13:02:21.839Z,16.90
2019-05-07T13:04:46.608Z,16.90
2019-05-07T13:07:22.785Z,16.90
2019-05-07T13:09:53.576Z,16.89
2019-05-07T13:12:24.101Z,16.88
2019-05-07T13:14:54.075Z,16.89
2019-05-07T13:17:24.346Z,16.94
2019-05-07T13:19:54.703Z,16.94
2019-05-07T13:22:25.065Z,16.94
2019-05-07T13:24:55.514Z,16.95
2019-05-07T13:27:26.007Z,16.98
2019-05-07T13:29:56.227Z,16.99
2019-05-07T13:32:26.218Z,16.98
2019-05-07T13:34:56.224Z,16.99
2019-05-07T13:37:32.532Z,17.02
2019-05-07T13:40:20.032Z,17.04
2019-05-07T13:42:54.611Z,17.04
2019-05-07T13:45:26.336Z,17.07
2019-05-07T13:47:58.415Z,17.08
2019-05-07T13:50:28.801Z,17.08
2019-05-07T13:52:59.020Z,17.08
2019-05-07T13:55:29.180Z,17.08
2019-05-07T13:57:59.413Z,17.10
2019-05-07T14:00:32.441Z,17.12
2019-05-07T14:03:03.229Z,17.11
2019-05-07T14:05:33.931Z,17.12
2019-05-07T14:08:04.709Z,17.11
2019-05-07T14:10:35.102Z,17.13
2019-05-07T14:13:12.567Z,17.12
2019-05-07T14:15:37.756Z,17.12
2019-05-07T14:18:08.161Z,17.11
2019-05-07T14:20:38.504Z,17.11
2019-05-07T14:23:09.110Z,17.11
2019-05-07T14:25:41.832Z,17.10
2019-05-07T14:28:10.591Z,17.08
2019-05-07T14:30:42.089Z,17.09
2019-05-07T14:33:17.577Z,17.07
2019-05-07T14:35:53.838Z,17.07
2019-05-07T14:38:26.018Z,17.06
2019-05-07T14:40:56.408Z,17.08
2019-05-07T14:43:28.519Z,17.11
2019-05-07T14:45:58.676Z,17.11
2019-05-07T14:48:29.117Z,17.12
2019-05-07T14:50:59.612Z,17.13
2019-05-07T14:53:30.271Z,17.15
2019-05-07T14:56:00.545Z,17.14
2019-05-07T14:58:31.896Z,17.15
2019-05-07T15:01:02.841Z,17.17
2019-05-07T15:03:34.704Z,17.17
2019-05-07T15:06:04.706Z,17.18
2019-05-07T15:08:34.978Z,17.19
2019-05-07T15:11:05.582Z,17.18
2019-05-07T15:13:35.591Z,17.19
2019-05-07T15:16:05.655Z,17.18
2019-05-07T15:18:42.407Z,17.18
2019-05-07T15:21:13.841Z,17.18
2019-05-07T15:23:44.069Z,17.19
2019-05-07T15:26:14.503Z,17.17
2019-05-07T15:28:46.673Z,17.19
2019-05-07T15:31:17.783Z,17.17
2019-05-07T15:33:48.092Z,17.17
2019-05-07T15:36:18.015Z,17.19
2019-05-07T15:38:48.004Z,17.18
2019-05-07T15:41:18.493Z,17.20
2019-05-07T15:43:48.554Z,17.21
2019-05-07T15:46:18.733Z,17.22
2019-05-07T15:48:49.196Z,17.24
2019-05-07T15:51:19.298Z,17.25
2019-05-07T15:53:52.215Z,17.23
2019-05-07T15:56:22.685Z,17.23
2019-05-07T15:58:52.793Z,17.24
2019-05-07T16:01:23.391Z,17.24
2019-05-07T16:03:54.786Z,17.24
2019-05-07T16:06:25.477Z,17.23
2019-05-07T16:08:57.140Z,17.21
2019-05-07T16:11:27.185Z,17.21
2019-05-07T16:14:06.063Z,17.17
2019-05-07T16:16:37.635Z,17.16
2019-05-07T16:19:12.473Z,17.19
2019-05-07T16:21:42.734Z,17.19
2019-05-07T16:24:12.582Z,17.20
2019-05-07T16:26:42.476Z,17.30
2019-05-07T16:29:13.208Z,17.24
2019-05-07T16:31:44.390Z,17.19
2019-05-07T16:34:14.464Z,17.16
2019-05-07T16:36:44.543Z,17.14
2019-05-07T16:39:14.546Z,17.12
2019-05-07T16:41:44.738Z,17.12
2019-05-07T16:44:14.846Z,17.11
2019-05-07T16:46:46.431Z,17.16
2019-05-07T16:49:16.565Z,17.18
2019-05-07T16:51:46.649Z,17.23
2019-05-07T16:54:16.604Z,17.25
2019-05-07T16:57:03.941Z,17.27
2019-05-07T16:59:33.987Z,17.28
2019-05-07T17:02:05.686Z,17.30
2019-05-07T17:05:06.370Z,17.29
2019-05-07T17:07:37.882Z,17.32
2019-05-07T17:10:11.669Z,17.34
2019-05-07T17:12:43.222Z,17.35
2019-05-07T17:15:13.944Z,17.35
2019-05-07T17:17:43.907Z,17.36
2019-05-07T17:20:13.923Z,17.40
2019-05-07T17:22:44.079Z,17.41
2019-05-07T17:25:15.580Z,17.41
2019-05-07T17:27:48.510Z,17.45
2019-05-07T17:30:17.446Z,17.45
2019-05-07T17:32:47.548Z,17.46
2019-05-07T17:35:17.657Z,17.47
2019-05-07T17:37:47.632Z,17.46
2019-05-07T17:40:17.686Z,17.47
2019-05-07T17:42:47.655Z,17.47
2019-05-07T17:45:17.890Z,17.48
2019-05-07T17:47:48.069Z,17.49
2019-05-07T17:50:19.705Z,17.50
2019-05-07T17:52:49.847Z,17.51
2019-05-07T17:55:22.185Z,17.50
2019-05-07T17:57:52.325Z,17.52
2019-05-07T18:00:22.571Z,17.52
2019-05-07T18:03:10.496Z,17.51
2019-05-07T18:05:42.332Z,17.52
2019-05-07T18:08:12.669Z,17.53
2019-05-07T18:10:42.759Z,17.54
2019-05-07T18:13:12.848Z,17.54
2019-05-07T18:15:43.339Z,17.57
2019-05-07T18:18:13.490Z,17.57
2019-05-07T18:20:43.559Z,17.58
2019-05-07T18:23:16.882Z,17.59
2019-05-07T18:25:45.825Z,17.58
2019-05-07T18:28:16.201Z,17.59
2019-05-07T18:30:46.275Z,17.60
2019-05-07T18:33:16.047Z,17.61
2019-05-07T18:35:47.769Z,17.62
2019-05-07T18:38:17.898Z,17.63
2019-05-07T18:40:47.912Z,17.64
2019-05-07T18:43:18.021Z,17.64
2019-05-07T18:45:48.219Z,17.66
2019-05-07T18:48:18.052Z,17.66
2019-05-07T18:50:48.010Z,17.69
2019-05-07T18:53:17.993Z,17.69
2019-05-07T18:55:48.314Z,17.69
2019-05-07T18:58:18.321Z,17.72
2019-05-07T19:00:51.869Z,17.74
2019-05-07T19:03:21.832Z,17.76
2019-05-07T19:05:52.044Z,17.76
2019-05-07T19:08:22.952Z,17.78
2019-05-07T19:10:52.997Z,17.77
2019-05-07T19:13:23.170Z,17.78
2019-05-07T19:15:56.352Z,17.78
2019-05-07T19:18:24.429Z,17.79
2019-05-07T19:20:53.957Z,17.78
2019-05-07T19:23:23.940Z,17.78
2019-05-07T19:25:53.291Z,17.78
2019-05-07T19:28:22.688Z,17.79
2019-05-07T19:30:52.881Z,17.79
2019-05-07T19:33:26.675Z,17.81
2019-05-07T19:35:53.806Z,17.81
2019-05-07T19:38:23.152Z,17.81
2019-05-07T19:40:52.911Z,17.82
2019-05-07T19:43:22.370Z,17.83
2019-05-07T19:45:52.364Z,17.83
2019-05-07T19:48:23.117Z,17.82
2019-05-07T19:50:52.865Z,17.83
2019-05-07T19:53:23.518Z,17.83
2019-05-07T19:56:09.555Z,17.82
2019-05-07T19:58:39.038Z,17.82
2019-05-07T20:01:11.945Z,17.81
2019-05-07T20:03:43.289Z,17.80
2019-05-07T20:06:12.960Z,17.81
2019-05-07T20:08:43.721Z,17.79
2019-05-07T20:11:14.949Z,17.79
2019-05-07T20:13:44.406Z,17.79
2019-05-07T20:16:15.757Z,17.77
2019-05-07T20:18:45.222Z,17.76
2019-05-07T20:21:14.643Z,17.74
2019-05-07T20:23:44.094Z,17.73
2019-05-07T20:26:13.503Z,17.72
2019-05-07T20:28:43.090Z,17.71
2019-05-07T20:31:12.578Z,17.71
2019-05-07T20:33:42.439Z,17.69
2019-05-07T20:36:12.035Z,17.68
2019-05-07T20:38:42.691Z,17.68
2019-05-07T20:41:13.679Z,17.68
2019-05-07T20:43:43.406Z,17.66
2019-05-07T20:46:12.761Z,17.67
2019-05-07T20:48:42.460Z,17.67
2019-05-07T20:51:12.622Z,17.67
2019-05-07T20:53:52.270Z,17.68
2019-05-07T20:56:39.437Z,17.67
2019-05-07T20:59:08.807Z,17.73
2019-05-07T21:01:38.304Z,17.73
2019-05-07T21:04:07.895Z,17.72
2019-05-07T21:06:37.304Z,17.70
2019-05-07T21:09:08.511Z,17.68
2019-05-07T21:11:37.917Z,17.67
2019-05-07T21:14:07.391Z,17.66
2019-05-07T21:16:36.819Z,17.65
2019-05-07T21:19:06.239Z,17.66
2019-05-07T21:21:35.806Z,17.64
2019-05-07T21:24:05.270Z,17.64
2019-05-07T21:26:34.656Z,17.64
2019-05-07T21:29:04.232Z,17.64
2019-05-07T21:31:33.670Z,17.64
2019-05-07T21:34:03.299Z,17.63
2019-05-07T21:36:32.664Z,17.62
2019-05-07T21:39:02.463Z,17.62
2019-05-07T21:41:33.544Z,17.61
2019-05-07T21:44:03.049Z,17.63
2019-05-07T21:46:33.056Z,17.61
2019-05-07T21:49:02.800Z,17.61
2019-05-07T21:51:32.373Z,17.60
2019-05-07T21:54:06.231Z,17.60
2019-05-07T21:56:37.226Z,17.60
2019-05-07T21:59:12.581Z,17.59
2019-05-07T22:01:43.930Z,17.58
2019-05-07T22:04:13.347Z,17.61
2019-05-07T22:06:45.421Z,17.61
2019-05-07T22:09:14.521Z,17.60
2019-05-07T22:11:44.010Z,17.62
2019-05-07T22:14:13.375Z,17.61
2019-05-07T22:16:43.164Z,17.61
2019-05-07T22:19:12.670Z,17.60
2019-05-07T22:21:43.169Z,17.60
2019-05-07T22:24:15.090Z,17.59
2019-05-07T22:26:44.167Z,17.59
2019-05-07T22:29:13.473Z,17.59
2019-05-07T22:31:44.472Z,17.59
2019-05-07T22:34:18.423Z,17.57
2019-05-07T22:36:47.951Z,17.59
2019-05-07T22:39:17.417Z,17.58
2019-05-07T22:41:46.954Z,17.59
2019-05-07T22:44:16.694Z,17.58
2019-05-07T22:46:46.073Z,17.58
2019-05-07T22:49:15.703Z,17.58
2019-05-07T22:51:45.162Z,17.58
2019-05-07T22:54:14.806Z,17.57
2019-05-07T22:56:58.085Z,17.57
2019-05-07T22:59:27.717Z,17.57
2019-05-07T23:01:57.224Z,17.56
2019-05-07T23:04:26.644Z,17.55
2019-05-07T23:06:56.089Z,17.54
2019-05-07T23:09:25.532Z,17.54
2019-05-07T23:11:55.098Z,17.56
2019-05-07T23:14:24.632Z,17.55
2019-05-07T23:16:55.462Z,17.55
2019-05-07T23:19:25.109Z,17.53
2019-05-07T23:21:54.593Z,17.54
2019-05-07T23:24:24.967Z,17.54
2019-05-07T23:26:54.606Z,17.52
2019-05-07T23:29:24.051Z,17.52
2019-05-07T23:31:55.263Z,17.52
2019-05-07T23:34:24.787Z,17.51
2019-05-07T23:36:54.242Z,17.51
2019-05-07T23:39:25.258Z,17.51
2019-05-07T23:41:57.377Z,17.51
2019-05-07T23:44:26.180Z,17.50
2019-05-07T23:46:55.813Z,17.51
2019-05-07T23:49:26.381Z,17.49
2019-05-07T23:51:55.786Z,17.47
2019-05-07T23:54:25.230Z,17.48
2019-05-07T23:57:05.882Z,17.46
2019-05-07T23:59:25.791Z,17.47
